Date,TemperatureHighF,TemperatureAvgF,TemperatureLowF,DewpointHighF,DewpointAvgF,DewpointLowF,HumidityHigh,HumidityAvg,HumidityLow,PressureMaxIn,PressureMinIn,WindSpeedMaxMPH,WindSpeedAvgMPH,GustSpeedMaxMPH,PrecipitationSumIn
2014-2-1,47,44,40,43,39,35,92,85,75,29.60,29.24,17,9,17,0.33
2014-2-2,49,42,38,40,37,34,86,81,72,29.98,29.60,12,7,12,0.00
2014-2-3,49,40,33,39,35,31,92,82,66,29.98,29.63,14,6,14,0.00
2014-2-4,51,44,37,41,37,33,86,77,65,29.73,29.53,13,8,13,0.00
2014-2-5,51,45,40,42,39,34,85,78,69,29.53,29.24,19,11,19,0.05
2014-2-6,50,46,42,42,40,38,90,79,71,29.57,29.18,17,10,17,0.23
2014-2-7,51,46,41,46,42,37,90,86,77,29.52,28.97,23,10,23,0.35
2014-2-8,48,44,40,44,40,36,92,85,75,29.46,29.06,17,10,17,0.19
2014-2-9,47,43,39,38,36,34,86,76,66,29.39,29.08,22,12,22,0.19
2014-2-10,46,41,37,40,37,34,90,85,75,29.43,29.30,8,6,8,0.07
2014-2-11,48,43,41,40,38,35,90,83,63,29.56,29.42,16,8,16,0.08
2014-2-12,50,43,38,40,37,34,90,80,58,29.69,29.31,22,10,22,0.11
2014-2-13,44,41,37,40,37,34,90,86,80,29.53,29.25,16,7,16,0.08
2014-2-14,50,41,36,46,37,33,93,88,80,29.65,29.11,16,9,16,0.34
2014-2-15,55,51,44,48,40,37,87,67,57,29.53,29.11,29,14,29,0.07
2014-2-16,52,45,39,42,38,33,86,78,65,29.83,29.53,17,8,17,0.06
2014-2-17,54,45,38,45,39,35,90,82,70,29.95,29.79,9,6,9,0.01
2014-2-18,47,44,41,40,38,36,87,80,76,29.95,29.81,8,6,8,0.02
2014-2-19,51,46,43,45,42,40,91,86,77,29.93,29.80,12,6,12,0.01
2014-2-20,50,47,43,48,44,39,93,90,85,29.91,29.56,13,7,13,0.13
2014-2-21,52,46,41,44,40,36,91,82,67,29.75,29.56,16,8,16,0.15
2014-2-22,50,44,40,42,39,35,87,80,71,30.02,29.72,13,7,13,0.00
2014-2-23,55,46,39,45,40,36,90,80,66,30.04,29.99,13,7,13,0.00
2014-2-24,57,48,39,43,39,35,87,74,57,29.99,29.79,13,7,13,0.00
2014-2-25,55,49,45,44,41,38,87,75,63,29.79,29.68,14,8,14,0.22
2014-2-26,53,45,40,45,40,37,91,83,71,30.07,29.77,10,6,10,0.01
2014-2-27,45,41,38,39,38,35,90,87,77,30.07,29.71,17,8,17,0.10
2014-2-28,49,43,38,41,38,35,93,83,66,29.71,29.48,12,6,12,0.03